sensor_id;sensor_type;location;lat;lon;timestamp;temperature;humidity
66422;DHT22;53228;51.380;0.098;2024-02-15T00:00:52;11.80;99.90
66422;DHT22;53228;51.380;0.098;2024-02-15T00:03:20;11.80;99.90
66422;DHT22;53228;51.380;0.098;2024-02-15T00:05:49;12.00;99.90
66422;DHT22;53228;51.380;0.098;2024-02-15T00:08:17;11.80;99.90
66422;DHT22;53228;51.380;0.098;2024-02-15T00:10:45;11.80;99.90
66422;DHT22;53228;51.380;0.098;2024-02-15T00:13:14;11.80;99.90
66422;DHT22;53228;51.380;0.098;2024-02-15T00:15:42;11.80;99.90
66422;DHT22;53228;51.380;0.098;2024-02-15T00:18:09;11.80;99.90
66422;DHT22;53228;51.380;0.098;2024-02-15T00:20:38;11.80;99.90
66422;DHT22;53228;51.380;0.098;2024-02-15T00:23:06;11.80;99.90
66422;DHT22;53228;51.380;0.098;2024-02-15T00:25:34;11.80;99.90
66422;DHT22;53228;51.380;0.098;2024-02-15T00:28:03;11.80;99.90
66422;DHT22;53228;51.380;0.098;2024-02-15T00:30:31;11.90;99.90
66422;DHT22;53228;51.380;0.098;2024-02-15T00:32:59;11.80;99.90
66422;DHT22;53228;51.380;0.098;2024-02-15T00:35:31;11.90;99.90
66422;DHT22;53228;51.380;0.098;2024-02-15T00:37:58;11.90;99.90
66422;DHT22;53228;51.380;0.098;2024-02-15T00:40:27;11.90;99.90
66422;DHT22;53228;51.380;0.098;2024-02-15T00:42:55;11.90;99.90
66422;DHT22;53228;51.380;0.098;2024-02-15T00:45:22;11.90;99.90
66422;DHT22;53228;51.380;0.098;2024-02-15T00:47:50;11.90;99.90
66422;DHT22;53228;51.380;0.098;2024-02-15T00:50:18;11.90;99.90
66422;DHT22;53228;51.380;0.098;2024-02-15T00:52:46;11.90;99.90
66422;DHT22;53228;51.380;0.098;2024-02-15T00:55:13;11.90;99.90
66422;DHT22;53228;51.380;0.098;2024-02-15T00:57:41;11.90;99.90
66422;DHT22;53228;51.380;0.098;2024-02-15T01:00:09;11.90;99.90
66422;DHT22;53228;51.380;0.098;2024-02-15T01:02:37;13.80;99.90
66422;DHT22;53228;51.380;0.098;2024-02-15T01:05:05;11.90;99.90
66422;DHT22;53228;51.380;0.098;2024-02-15T01:07:33;12.00;99.90
66422;DHT22;53228;51.380;0.098;2024-02-15T01:10:01;12.00;99.90
66422;DHT22;53228;51.380;0.098;2024-02-15T01:12:30;12.00;99.90
66422;DHT22;53228;51.380;0.098;2024-02-15T01:14:59;12.00;99.90
66422;DHT22;53228;51.380;0.098;2024-02-15T01:17:26;12.00;99.90
66422;DHT22;53228;51.380;0.098;2024-02-15T01:19:54;12.00;99.90
66422;DHT22;53228;51.380;0.098;2024-02-15T01:22:23;12.00;99.90
66422;DHT22;53228;51.380;0.098;2024-02-15T01:24:54;12.00;99.90
66422;DHT22;53228;51.380;0.098;2024-02-15T01:27:24;12.00;99.90
66422;DHT22;53228;51.380;0.098;2024-02-15T01:29:52;12.00;99.90
66422;DHT22;53228;51.380;0.098;2024-02-15T01:32:19;12.10;99.90
66422;DHT22;53228;51.380;0.098;2024-02-15T01:34:47;12.10;99.90
66422;DHT22;53228;51.380;0.098;2024-02-15T01:37:15;12.10;99.90
66422;DHT22;53228;51.380;0.098;2024-02-15T01:39:43;12.10;99.90
66422;DHT22;53228;51.380;0.098;2024-02-15T01:42:10;12.10;99.90
66422;DHT22;53228;51.380;0.098;2024-02-15T01:44:38;12.10;99.90
66422;DHT22;53228;51.380;0.098;2024-02-15T01:47:07;13.90;99.90
66422;DHT22;53228;51.380;0.098;2024-02-15T01:49:36;12.10;99.90
66422;DHT22;53228;51.380;0.098;2024-02-15T01:52:05;12.10;99.90
66422;DHT22;53228;51.380;0.098;2024-02-15T01:54:36;12.10;99.90
66422;DHT22;53228;51.380;0.098;2024-02-15T01:57:06;12.10;99.90
66422;DHT22;53228;51.380;0.098;2024-02-15T01:59:35;12.10;99.90
66422;DHT22;53228;51.380;0.098;2024-02-15T02:02:04;12.10;99.90
66422;DHT22;53228;51.380;0.098;2024-02-15T02:04:37;12.10;99.90
66422;DHT22;53228;51.380;0.098;2024-02-15T02:07:06;12.10;99.90
66422;DHT22;53228;51.380;0.098;2024-02-15T02:09:33;12.10;99.90
66422;DHT22;53228;51.380;0.098;2024-02-15T02:12:01;12.10;99.90
66422;DHT22;53228;51.380;0.098;2024-02-15T02:14:30;12.00;99.90
66422;DHT22;53228;51.380;0.098;2024-02-15T02:17:11;12.00;99.90
66422;DHT22;53228;51.380;0.098;2024-02-15T02:19:39;12.00;99.90
66422;DHT22;53228;51.380;0.098;2024-02-15T02:22:08;11.00;99.90
66422;DHT22;53228;51.380;0.098;2024-02-15T02:25:05;11.90;99.90
66422;DHT22;53228;51.380;0.098;2024-02-15T02:27:38;11.90;99.90
66422;DHT22;53228;51.380;0.098;2024-02-15T02:30:12;11.90;99.90
66422;DHT22;53228;51.380;0.098;2024-02-15T02:35:17;11.90;99.90
66422;DHT22;53228;51.380;0.098;2024-02-15T02:37:45;11.90;99.90
66422;DHT22;53228;51.380;0.098;2024-02-15T02:40:14;11.90;99.90
66422;DHT22;53228;51.380;0.098;2024-02-15T02:45:20;11.80;99.90
66422;DHT22;53228;51.380;0.098;2024-02-15T02:47:51;11.80;99.90
66422;DHT22;53228;51.380;0.098;2024-02-15T02:50:22;11.80;99.90
66422;DHT22;53228;51.380;0.098;2024-02-15T02:52:54;11.80;99.90
66422;DHT22;53228;51.380;0.098;2024-02-15T02:55:22;11.80;99.90
66422;DHT22;53228;51.380;0.098;2024-02-15T02:57:50;11.90;99.90
66422;DHT22;53228;51.380;0.098;2024-02-15T03:00:18;11.80;99.90
66422;DHT22;53228;51.380;0.098;2024-02-15T03:02:47;11.80;99.90
66422;DHT22;53228;51.380;0.098;2024-02-15T03:05:15;11.80;99.90
66422;DHT22;53228;51.380;0.098;2024-02-15T03:07:43;11.80;99.90
66422;DHT22;53228;51.380;0.098;2024-02-15T03:10:12;11.80;99.90
66422;DHT22;53228;51.380;0.098;2024-02-15T03:12:42;11.80;99.90
66422;DHT22;53228;51.380;0.098;2024-02-15T03:15:16;11.80;99.90
66422;DHT22;53228;51.380;0.098;2024-02-15T03:17:46;11.80;99.90
66422;DHT22;53228;51.380;0.098;2024-02-15T03:20:14;11.80;99.90
66422;DHT22;53228;51.380;0.098;2024-02-15T03:22:54;11.90;99.90
66422;DHT22;53228;51.380;0.098;2024-02-15T03:25:27;11.90;99.90
66422;DHT22;53228;51.380;0.098;2024-02-15T03:28:00;11.90;99.90
66422;DHT22;53228;51.380;0.098;2024-02-15T03:30:34;10.80;99.90
66422;DHT22;53228;51.380;0.098;2024-02-15T03:33:02;11.90;99.90
66422;DHT22;53228;51.380;0.098;2024-02-15T03:35:34;11.90;99.90
66422;DHT22;53228;51.380;0.098;2024-02-15T03:38:02;11.90;99.90
66422;DHT22;53228;51.380;0.098;2024-02-15T03:40:30;11.90;99.90
66422;DHT22;53228;51.380;0.098;2024-02-15T03:42:59;11.90;99.90
66422;DHT22;53228;51.380;0.098;2024-02-15T03:45:27;11.90;99.90
66422;DHT22;53228;51.380;0.098;2024-02-15T03:47:55;11.90;99.90
66422;DHT22;53228;51.380;0.098;2024-02-15T03:50:25;11.90;99.90
66422;DHT22;53228;51.380;0.098;2024-02-15T03:52:54;11.90;99.90
66422;DHT22;53228;51.380;0.098;2024-02-15T03:55:22;11.90;99.90
66422;DHT22;53228;51.380;0.098;2024-02-15T04:00:23;11.80;99.90
66422;DHT22;53228;51.380;0.098;2024-02-15T04:02:52;11.80;99.90
66422;DHT22;53228;51.380;0.098;2024-02-15T04:05:21;11.80;99.90
66422;DHT22;53228;51.380;0.098;2024-02-15T04:07:50;11.80;99.90
66422;DHT22;53228;51.380;0.098;2024-02-15T04:10:18;11.80;99.90
66422;DHT22;53228;51.380;0.098;2024-02-15T04:12:54;11.80;99.90
66422;DHT22;53228;51.380;0.098;2024-02-15T04:15:21;11.80;99.90
66422;DHT22;53228;51.380;0.098;2024-02-15T04:17:49;13.30;99.90
66422;DHT22;53228;51.380;0.098;2024-02-15T04:20:23;12.10;99.90
66422;DHT22;53228;51.380;0.098;2024-02-15T04:22:52;11.80;99.90
66422;DHT22;53228;51.380;0.098;2024-02-15T04:25:21;11.80;99.90
66422;DHT22;53228;51.380;0.098;2024-02-15T04:27:55;11.90;99.90
66422;DHT22;53228;51.380;0.098;2024-02-15T04:30:25;11.80;99.90
66422;DHT22;53228;51.380;0.098;2024-02-15T04:32:53;11.80;99.90
66422;DHT22;53228;51.380;0.098;2024-02-15T04:35:21;11.80;99.90
66422;DHT22;53228;51.380;0.098;2024-02-15T04:37:50;10.50;99.90
66422;DHT22;53228;51.380;0.098;2024-02-15T04:40:21;11.80;99.90
66422;DHT22;53228;51.380;0.098;2024-02-15T04:42:48;11.80;99.90
66422;DHT22;53228;51.380;0.098;2024-02-15T04:45:16;11.80;99.90
66422;DHT22;53228;51.380;0.098;2024-02-15T04:47:57;11.80;99.90
66422;DHT22;53228;51.380;0.098;2024-02-15T04:50:29;11.80;99.90
66422;DHT22;53228;51.380;0.098;2024-02-15T04:52:57;11.80;99.90
66422;DHT22;53228;51.380;0.098;2024-02-15T04:55:25;11.80;99.90
66422;DHT22;53228;51.380;0.098;2024-02-15T04:57:53;11.80;99.90
66422;DHT22;53228;51.380;0.098;2024-02-15T05:00:23;11.80;99.90
66422;DHT22;53228;51.380;0.098;2024-02-15T05:02:53;11.80;99.90
66422;DHT22;53228;51.380;0.098;2024-02-15T05:05:21;11.80;99.90
66422;DHT22;53228;51.380;0.098;2024-02-15T05:07:50;11.80;99.90
66422;DHT22;53228;51.380;0.098;2024-02-15T05:10:18;11.80;99.90
66422;DHT22;53228;51.380;0.098;2024-02-15T05:12:46;11.80;99.90
66422;DHT22;53228;51.380;0.098;2024-02-15T05:15:16;11.80;99.90
66422;DHT22;53228;51.380;0.098;2024-02-15T05:17:45;11.80;99.90
66422;DHT22;53228;51.380;0.098;2024-02-15T05:20:13;11.80;99.90
66422;DHT22;53228;51.380;0.098;2024-02-15T05:22:42;10.70;99.90
66422;DHT22;53228;51.380;0.098;2024-02-15T05:25:19;11.80;99.90
66422;DHT22;53228;51.380;0.098;2024-02-15T05:27:55;11.80;99.90
66422;DHT22;53228;51.380;0.098;2024-02-15T05:30:25;11.80;99.90
66422;DHT22;53228;51.380;0.098;2024-02-15T05:32:53;11.90;99.90
66422;DHT22;53228;51.380;0.098;2024-02-15T05:35:22;11.80;99.90
66422;DHT22;53228;51.380;0.098;2024-02-15T05:37:51;11.90;99.90
66422;DHT22;53228;51.380;0.098;2024-02-15T05:40:22;11.90;99.90
66422;DHT22;53228;51.380;0.098;2024-02-15T05:42:55;11.90;99.90
66422;DHT22;53228;51.380;0.098;2024-02-15T05:47:54;11.90;99.90
66422;DHT22;53228;51.380;0.098;2024-02-15T05:50:22;11.90;99.90
66422;DHT22;53228;51.380;0.098;2024-02-15T05:52:51;11.90;99.90
66422;DHT22;53228;51.380;0.098;2024-02-15T05:55:22;12.00;99.90
66422;DHT22;53228;51.380;0.098;2024-02-15T05:57:49;11.90;99.90
66422;DHT22;53228;51.380;0.098;2024-02-15T06:00:21;13.00;99.90
66422;DHT22;53228;51.380;0.098;2024-02-15T06:02:50;11.90;99.90
66422;DHT22;53228;51.380;0.098;2024-02-15T06:05:20;12.00;99.90
66422;DHT22;53228;51.380;0.098;2024-02-15T06:07:48;11.10;99.90
66422;DHT22;53228;51.380;0.098;2024-02-15T06:10:16;12.00;99.90
66422;DHT22;53228;51.380;0.098;2024-02-15T06:12:45;12.00;99.90
66422;DHT22;53228;51.380;0.098;2024-02-15T06:15:13;12.00;99.90
66422;DHT22;53228;51.380;0.098;2024-02-15T06:17:44;12.00;99.90
66422;DHT22;53228;51.380;0.098;2024-02-15T06:22:44;12.00;99.90
66422;DHT22;53228;51.380;0.098;2024-02-15T06:25:13;12.10;99.90
66422;DHT22;53228;51.380;0.098;2024-02-15T06:27:42;12.10;99.90
66422;DHT22;53228;51.380;0.098;2024-02-15T06:30:12;12.10;99.90
66422;DHT22;53228;51.380;0.098;2024-02-15T06:33:00;12.10;99.90
66422;DHT22;53228;51.380;0.098;2024-02-15T06:35:47;12.10;99.90
66422;DHT22;53228;51.380;0.098;2024-02-15T06:38:34;12.10;99.90
66422;DHT22;53228;51.380;0.098;2024-02-15T06:41:20;12.10;99.90
66422;DHT22;53228;51.380;0.098;2024-02-15T06:43:52;12.10;99.90
66422;DHT22;53228;51.380;0.098;2024-02-15T06:46:19;12.10;99.90
66422;DHT22;53228;51.380;0.098;2024-02-15T06:48:56;12.10;99.90
66422;DHT22;53228;51.380;0.098;2024-02-15T06:51:26;12.10;99.90
66422;DHT22;53228;51.380;0.098;2024-02-15T06:53:53;12.10;99.90
66422;DHT22;53228;51.380;0.098;2024-02-15T06:56:23;12.10;99.90
66422;DHT22;53228;51.380;0.098;2024-02-15T06:58:51;12.10;99.90
66422;DHT22;53228;51.380;0.098;2024-02-15T07:01:21;12.10;99.90
66422;DHT22;53228;51.380;0.098;2024-02-15T07:03:51;12.10;99.90
66422;DHT22;53228;51.380;0.098;2024-02-15T07:06:19;12.10;99.90
66422;DHT22;53228;51.380;0.098;2024-02-15T07:08:48;12.20;99.90
66422;DHT22;53228;51.380;0.098;2024-02-15T07:11:18;12.20;99.90
66422;DHT22;53228;51.380;0.098;2024-02-15T07:13:46;12.20;99.90
66422;DHT22;53228;51.380;0.098;2024-02-15T07:16:13;12.20;99.90
66422;DHT22;53228;51.380;0.098;2024-02-15T07:18:43;12.20;99.90
66422;DHT22;53228;51.380;0.098;2024-02-15T07:21:11;12.20;99.90
66422;DHT22;53228;51.380;0.098;2024-02-15T07:26:09;12.20;99.90
66422;DHT22;53228;51.380;0.098;2024-02-15T07:28:39;12.20;99.90
66422;DHT22;53228;51.380;0.098;2024-02-15T07:31:08;12.20;99.90
66422;DHT22;53228;51.380;0.098;2024-02-15T07:33:36;11.50;99.90
66422;DHT22;53228;51.380;0.098;2024-02-15T07:36:04;12.30;99.90
66422;DHT22;53228;51.380;0.098;2024-02-15T07:38:32;12.30;99.90
66422;DHT22;53228;51.380;0.098;2024-02-15T07:41:02;12.30;99.90
66422;DHT22;53228;51.380;0.098;2024-02-15T07:43:29;12.30;99.90
66422;DHT22;53228;51.380;0.098;2024-02-15T07:45:57;12.30;99.90
66422;DHT22;53228;51.380;0.098;2024-02-15T07:48:25;12.30;99.90
66422;DHT22;53228;51.380;0.098;2024-02-15T07:50:54;12.30;99.90
66422;DHT22;53228;51.380;0.098;2024-02-15T07:53:22;11.20;99.90
66422;DHT22;53228;51.380;0.098;2024-02-15T07:55:50;12.40;99.90
66422;DHT22;53228;51.380;0.098;2024-02-15T07:58:18;12.40;99.90
66422;DHT22;53228;51.380;0.098;2024-02-15T08:00:50;12.40;99.90
66422;DHT22;53228;51.380;0.098;2024-02-15T08:03:18;12.40;99.90
66422;DHT22;53228;51.380;0.098;2024-02-15T08:05:46;12.40;99.90
66422;DHT22;53228;51.380;0.098;2024-02-15T08:08:15;12.50;99.90
66422;DHT22;53228;51.380;0.098;2024-02-15T08:10:43;12.50;99.90
66422;DHT22;53228;51.380;0.098;2024-02-15T08:13:11;11.50;99.90
66422;DHT22;53228;51.380;0.098;2024-02-15T08:15:38;13.40;99.90
66422;DHT22;53228;51.380;0.098;2024-02-15T08:18:06;12.60;99.90
66422;DHT22;53228;51.380;0.098;2024-02-15T08:20:37;12.60;99.90
66422;DHT22;53228;51.380;0.098;2024-02-15T08:23:05;12.70;99.90
66422;DHT22;53228;51.380;0.098;2024-02-15T08:25:32;12.70;99.90
66422;DHT22;53228;51.380;0.098;2024-02-15T08:28:00;12.80;99.90
66422;DHT22;53228;51.380;0.098;2024-02-15T08:30:32;12.80;99.90
66422;DHT22;53228;51.380;0.098;2024-02-15T08:33:00;12.80;99.90
66422;DHT22;53228;51.380;0.098;2024-02-15T08:35:28;12.90;99.90
66422;DHT22;53228;51.380;0.098;2024-02-15T08:37:56;12.90;99.90
66422;DHT22;53228;51.380;0.098;2024-02-15T08:40:23;12.90;99.90
66422;DHT22;53228;51.380;0.098;2024-02-15T08:42:53;12.30;99.90
66422;DHT22;53228;51.380;0.098;2024-02-15T08:45:21;13.00;99.90
66422;DHT22;53228;51.380;0.098;2024-02-15T08:47:49;13.00;99.90
66422;DHT22;53228;51.380;0.098;2024-02-15T08:50:20;13.10;99.90
66422;DHT22;53228;51.380;0.098;2024-02-15T08:52:51;13.10;99.90
66422;DHT22;53228;51.380;0.098;2024-02-15T08:55:18;13.20;99.90
66422;DHT22;53228;51.380;0.098;2024-02-15T08:57:52;13.20;99.90
66422;DHT22;53228;51.380;0.098;2024-02-15T09:00:20;13.20;99.90
66422;DHT22;53228;51.380;0.098;2024-02-15T09:02:48;13.30;99.90
66422;DHT22;53228;51.380;0.098;2024-02-15T09:05:17;13.30;99.90
66422;DHT22;53228;51.380;0.098;2024-02-15T09:07:46;13.50;99.90
66422;DHT22;53228;51.380;0.098;2024-02-15T09:10:19;13.30;99.90
66422;DHT22;53228;51.380;0.098;2024-02-15T09:12:49;13.40;99.90
66422;DHT22;53228;51.380;0.098;2024-02-15T09:15:18;13.40;99.90
66422;DHT22;53228;51.380;0.098;2024-02-15T09:17:46;13.40;99.90
66422;DHT22;53228;51.380;0.098;2024-02-15T09:20:15;13.40;99.90
66422;DHT22;53228;51.380;0.098;2024-02-15T09:22:52;13.50;99.90
66422;DHT22;53228;51.380;0.098;2024-02-15T09:25:22;13.50;99.90
66422;DHT22;53228;51.380;0.098;2024-02-15T09:27:53;13.50;99.90
66422;DHT22;53228;51.380;0.098;2024-02-15T09:30:23;13.50;99.90
66422;DHT22;53228;51.380;0.098;2024-02-15T09:32:53;13.60;99.90
66422;DHT22;53228;51.380;0.098;2024-02-15T09:35:22;13.60;99.90
66422;DHT22;53228;51.380;0.098;2024-02-15T09:37:50;13.60;99.90
66422;DHT22;53228;51.380;0.098;2024-02-15T09:40:18;13.60;99.90
66422;DHT22;53228;51.380;0.098;2024-02-15T09:42:48;13.70;99.90
66422;DHT22;53228;51.380;0.098;2024-02-15T09:45:15;13.70;99.90
66422;DHT22;53228;51.380;0.098;2024-02-15T09:47:45;13.70;99.90
66422;DHT22;53228;51.380;0.098;2024-02-15T09:50:15;12.50;99.90
66422;DHT22;53228;51.380;0.098;2024-02-15T09:52:51;13.70;99.90
66422;DHT22;53228;51.380;0.098;2024-02-15T09:55:20;13.80;99.90
66422;DHT22;53228;51.380;0.098;2024-02-15T09:57:51;13.80;99.90
66422;DHT22;53228;51.380;0.098;2024-02-15T10:00:19;13.20;99.90
66422;DHT22;53228;51.380;0.098;2024-02-15T10:02:50;13.80;99.90
66422;DHT22;53228;51.380;0.098;2024-02-15T10:05:18;13.90;99.90
66422;DHT22;53228;51.380;0.098;2024-02-15T10:07:46;14.00;99.90
66422;DHT22;53228;51.380;0.098;2024-02-15T10:10:24;14.10;99.90
66422;DHT22;53228;51.380;0.098;2024-02-15T10:12:54;14.10;99.90
66422;DHT22;53228;51.380;0.098;2024-02-15T10:15:34;14.10;99.90
66422;DHT22;53228;51.380;0.098;2024-02-15T10:18:10;13.50;99.90
66422;DHT22;53228;51.380;0.098;2024-02-15T10:20:41;14.20;99.90
66422;DHT22;53228;51.380;0.098;2024-02-15T10:23:15;14.20;99.90
66422;DHT22;53228;51.380;0.098;2024-02-15T10:25:47;14.20;99.90
66422;DHT22;53228;51.380;0.098;2024-02-15T10:28:20;14.30;99.90
66422;DHT22;53228;51.380;0.098;2024-02-15T10:30:51;14.40;99.90
66422;DHT22;53228;51.380;0.098;2024-02-15T10:33:29;14.40;99.90
66422;DHT22;53228;51.380;0.098;2024-02-15T10:36:08;14.50;99.90
66422;DHT22;53228;51.380;0.098;2024-02-15T10:38:37;14.60;99.90
66422;DHT22;53228;51.380;0.098;2024-02-15T10:41:06;14.70;99.90
66422;DHT22;53228;51.380;0.098;2024-02-15T10:43:34;14.80;99.90
66422;DHT22;53228;51.380;0.098;2024-02-15T10:46:02;14.90;99.90
66422;DHT22;53228;51.380;0.098;2024-02-15T10:48:30;15.10;99.90
66422;DHT22;53228;51.380;0.098;2024-02-15T10:51:03;14.30;99.90
66422;DHT22;53228;51.380;0.098;2024-02-15T10:53:35;15.40;99.90
66422;DHT22;53228;51.380;0.098;2024-02-15T10:56:13;15.50;99.90
66422;DHT22;53228;51.380;0.098;2024-02-15T11:01:38;15.50;99.90
66422;DHT22;53228;51.380;0.098;2024-02-15T11:04:14;17.10;99.90
66422;DHT22;53228;51.380;0.098;2024-02-15T11:06:43;15.50;99.90
66422;DHT22;53228;51.380;0.098;2024-02-15T11:09:12;15.50;99.90
66422;DHT22;53228;51.380;0.098;2024-02-15T11:11:41;15.50;99.90
66422;DHT22;53228;51.380;0.098;2024-02-15T11:14:29;15.50;99.90
66422;DHT22;53228;51.380;0.098;2024-02-15T11:16:58;15.60;99.90
66422;DHT22;53228;51.380;0.098;2024-02-15T11:22:10;15.80;99.90
66422;DHT22;53228;51.380;0.098;2024-02-15T11:24:49;15.80;99.90
66422;DHT22;53228;51.380;0.098;2024-02-15T11:27:29;15.80;99.90
66422;DHT22;53228;51.380;0.098;2024-02-15T11:29:58;15.80;99.90
66422;DHT22;53228;51.380;0.098;2024-02-15T11:32:47;15.90;99.90
66422;DHT22;53228;51.380;0.098;2024-02-15T11:35:22;16.00;99.90
66422;DHT22;53228;51.380;0.098;2024-02-15T11:37:57;16.20;99.90
66422;DHT22;53228;51.380;0.098;2024-02-15T11:43:45;16.80;99.90
66422;DHT22;53228;51.380;0.098;2024-02-15T11:46:18;16.80;99.90
66422;DHT22;53228;51.380;0.098;2024-02-15T11:48:47;16.80;99.90
66422;DHT22;53228;51.380;0.098;2024-02-15T11:51:34;16.80;99.90
66422;DHT22;53228;51.380;0.098;2024-02-15T11:54:11;16.70;99.90
66422;DHT22;53228;51.380;0.098;2024-02-15T11:56:56;16.70;99.90
66422;DHT22;53228;51.380;0.098;2024-02-15T11:59:42;16.50;99.90
66422;DHT22;53228;51.380;0.098;2024-02-15T12:02:21;16.50;99.90
66422;DHT22;53228;51.380;0.098;2024-02-15T12:05:07;16.40;99.90
66422;DHT22;53228;51.380;0.098;2024-02-15T12:07:54;16.30;99.90
66422;DHT22;53228;51.380;0.098;2024-02-15T12:10:41;16.40;99.90
66422;DHT22;53228;51.380;0.098;2024-02-15T12:13:27;16.40;99.90
66422;DHT22;53228;51.380;0.098;2024-02-15T12:16:15;16.40;99.90
66422;DHT22;53228;51.380;0.098;2024-02-15T12:19:02;16.40;99.90
66422;DHT22;53228;51.380;0.098;2024-02-15T12:21:31;16.30;99.90
66422;DHT22;53228;51.380;0.098;2024-02-15T12:24:01;16.30;99.90
66422;DHT22;53228;51.380;0.098;2024-02-15T12:26:29;16.20;99.90
66422;DHT22;53228;51.380;0.098;2024-02-15T12:29:02;16.20;99.90
66422;DHT22;53228;51.380;0.098;2024-02-15T12:31:30;16.10;99.90
66422;DHT22;53228;51.380;0.098;2024-02-15T12:34:04;16.10;99.90
66422;DHT22;53228;51.380;0.098;2024-02-15T12:36:36;16.20;99.90
66422;DHT22;53228;51.380;0.098;2024-02-15T12:39:06;16.20;99.90
66422;DHT22;53228;51.380;0.098;2024-02-15T12:41:48;16.20;99.90
66422;DHT22;53228;51.380;0.098;2024-02-15T12:44:19;16.20;99.90
66422;DHT22;53228;51.380;0.098;2024-02-15T12:46:55;16.30;99.90
66422;DHT22;53228;51.380;0.098;2024-02-15T12:51:53;16.30;99.90
66422;DHT22;53228;51.380;0.098;2024-02-15T12:54:22;16.30;99.90
66422;DHT22;53228;51.380;0.098;2024-02-15T12:56:50;16.30;99.90
66422;DHT22;53228;51.380;0.098;2024-02-15T12:59:20;16.30;99.90
66422;DHT22;53228;51.380;0.098;2024-02-15T13:01:49;16.30;99.90
66422;DHT22;53228;51.380;0.098;2024-02-15T13:04:25;16.20;99.90
66422;DHT22;53228;51.380;0.098;2024-02-15T13:06:53;16.30;99.90
66422;DHT22;53228;51.380;0.098;2024-02-15T13:09:22;16.20;99.90
66422;DHT22;53228;51.380;0.098;2024-02-15T13:11:50;16.20;99.90
66422;DHT22;53228;51.380;0.098;2024-02-15T13:14:21;16.20;99.90
66422;DHT22;53228;51.380;0.098;2024-02-15T13:16:49;16.20;99.90
66422;DHT22;53228;51.380;0.098;2024-02-15T13:19:17;16.20;99.90
66422;DHT22;53228;51.380;0.098;2024-02-15T13:21:45;17.50;99.90
66422;DHT22;53228;51.380;0.098;2024-02-15T13:24:18;16.30;99.90
66422;DHT22;53228;51.380;0.098;2024-02-15T13:26:48;16.30;99.90
66422;DHT22;53228;51.380;0.098;2024-02-15T13:29:16;16.30;99.90
66422;DHT22;53228;51.380;0.098;2024-02-15T13:31:44;16.30;99.90
66422;DHT22;53228;51.380;0.098;2024-02-15T13:34:11;16.30;99.90
66422;DHT22;53228;51.380;0.098;2024-02-15T13:36:39;16.30;99.90
66422;DHT22;53228;51.380;0.098;2024-02-15T13:39:07;16.30;99.90
66422;DHT22;53228;51.380;0.098;2024-02-15T13:41:37;16.40;99.90
66422;DHT22;53228;51.380;0.098;2024-02-15T13:44:05;16.40;99.90
66422;DHT22;53228;51.380;0.098;2024-02-15T13:46:32;16.40;99.90
66422;DHT22;53228;51.380;0.098;2024-02-15T13:49:00;16.40;99.90
66422;DHT22;53228;51.380;0.098;2024-02-15T13:51:32;16.40;99.90
66422;DHT22;53228;51.380;0.098;2024-02-15T13:54:02;16.40;99.90
66422;DHT22;53228;51.380;0.098;2024-02-15T13:56:31;16.40;99.90
66422;DHT22;53228;51.380;0.098;2024-02-15T13:58:58;16.30;99.90
66422;DHT22;53228;51.380;0.098;2024-02-15T14:01:31;16.30;99.90
66422;DHT22;53228;51.380;0.098;2024-02-15T14:03:59;16.00;99.90
66422;DHT22;53228;51.380;0.098;2024-02-15T14:06:27;16.20;99.90
66422;DHT22;53228;51.380;0.098;2024-02-15T14:08:55;16.20;99.90
66422;DHT22;53228;51.380;0.098;2024-02-15T14:11:23;16.20;99.90
66422;DHT22;53228;51.380;0.098;2024-02-15T14:13:51;16.20;99.90
66422;DHT22;53228;51.380;0.098;2024-02-15T14:16:25;16.10;99.90
66422;DHT22;53228;51.380;0.098;2024-02-15T14:18:53;16.10;99.90
66422;DHT22;53228;51.380;0.098;2024-02-15T14:21:22;16.00;99.90
66422;DHT22;53228;51.380;0.098;2024-02-15T14:23:50;15.90;99.90
66422;DHT22;53228;51.380;0.098;2024-02-15T14:26:17;15.90;99.90
66422;DHT22;53228;51.380;0.098;2024-02-15T14:28:45;15.80;99.90
66422;DHT22;53228;51.380;0.098;2024-02-15T14:31:17;15.70;99.90
66422;DHT22;53228;51.380;0.098;2024-02-15T14:34:04;15.70;99.90
66422;DHT22;53228;51.380;0.098;2024-02-15T14:36:32;15.60;99.90
66422;DHT22;53228;51.380;0.098;2024-02-15T14:38:59;15.50;99.90
66422;DHT22;53228;51.380;0.098;2024-02-15T14:41:27;15.30;99.90
66422;DHT22;53228;51.380;0.098;2024-02-15T14:43:58;15.00;99.90
66422;DHT22;53228;51.380;0.098;2024-02-15T14:46:27;15.10;99.90
66422;DHT22;53228;51.380;0.098;2024-02-15T14:48:54;15.00;99.90
66422;DHT22;53228;51.380;0.098;2024-02-15T14:51:25;14.90;99.90
66422;DHT22;53228;51.380;0.098;2024-02-15T14:53:54;14.80;99.90
66422;DHT22;53228;51.380;0.098;2024-02-15T14:56:21;14.70;99.90
66422;DHT22;53228;51.380;0.098;2024-02-15T14:58:49;14.60;99.90
66422;DHT22;53228;51.380;0.098;2024-02-15T15:01:17;14.60;99.90
66422;DHT22;53228;51.380;0.098;2024-02-15T15:03:53;14.50;99.90
66422;DHT22;53228;51.380;0.098;2024-02-15T15:06:22;14.50;99.90
66422;DHT22;53228;51.380;0.098;2024-02-15T15:09:16;14.40;99.90
66422;DHT22;53228;51.380;0.098;2024-02-15T15:12:03;14.40;99.90
66422;DHT22;53228;51.380;0.098;2024-02-15T15:14:49;14.40;99.90
66422;DHT22;53228;51.380;0.098;2024-02-15T15:17:17;14.30;99.90
66422;DHT22;53228;51.380;0.098;2024-02-15T15:19:45;14.30;99.90
66422;DHT22;53228;51.380;0.098;2024-02-15T15:22:13;14.30;99.90
66422;DHT22;53228;51.380;0.098;2024-02-15T15:24:42;14.30;99.90
66422;DHT22;53228;51.380;0.098;2024-02-15T15:27:10;14.20;99.90
66422;DHT22;53228;51.380;0.098;2024-02-15T15:29:40;14.20;99.90
66422;DHT22;53228;51.380;0.098;2024-02-15T15:32:08;14.10;99.90
66422;DHT22;53228;51.380;0.098;2024-02-15T15:34:35;14.10;99.90
66422;DHT22;53228;51.380;0.098;2024-02-15T15:37:04;14.00;99.90
66422;DHT22;53228;51.380;0.098;2024-02-15T15:39:34;14.00;99.90
66422;DHT22;53228;51.380;0.098;2024-02-15T15:42:04;13.90;99.90
66422;DHT22;53228;51.380;0.098;2024-02-15T15:44:35;13.90;99.90
66422;DHT22;53228;51.380;0.098;2024-02-15T15:47:04;13.90;99.90
66422;DHT22;53228;51.380;0.098;2024-02-15T15:49:32;13.90;99.90
66422;DHT22;53228;51.380;0.098;2024-02-15T15:52:00;12.50;99.90
66422;DHT22;53228;51.380;0.098;2024-02-15T15:54:28;13.80;99.90
66422;DHT22;53228;51.380;0.098;2024-02-15T15:56:56;13.80;99.90
66422;DHT22;53228;51.380;0.098;2024-02-15T15:59:24;13.80;99.90
66422;DHT22;53228;51.380;0.098;2024-02-15T16:01:51;13.80;99.90
66422;DHT22;53228;51.380;0.098;2024-02-15T16:04:19;13.80;99.90
66422;DHT22;53228;51.380;0.098;2024-02-15T16:06:50;13.80;99.90
66422;DHT22;53228;51.380;0.098;2024-02-15T16:09:17;13.80;99.90
66422;DHT22;53228;51.380;0.098;2024-02-15T16:11:45;13.80;99.90
66422;DHT22;53228;51.380;0.098;2024-02-15T16:14:13;13.70;99.90
66422;DHT22;53228;51.380;0.098;2024-02-15T16:16:41;13.70;99.90